Machida, Japan
Current Conditions -  °F | °C
As of 5:04 AM on Sunday 21 Dec 2014 (Local Time) from RJTY Reporting Station
Moderate Fog Moderate Fog  
Wind Chill: 37°   Ceiling: Unl
Heat Index: 37°   Visibility: 0.25mi
Dew Point: 37°   Wind: 2mph
Humidity: 100%   Direction: 180°S
Pressure: 29.81"   Gusts: NA
Location:  35.56°N, 139.43°E
Report Text: RJTY 202004Z AUTO 18002KT 1/4SM R18/1000FT FG CLR 03/03 A2981 RMK AO2 VIS 1/4V1
Loading
Personal Weather Stations






























Interactive Weather Map New forecast layout! Learn more

10-Day Weather Forecast

Advertisements
Track Severe Weather on mobile